This is the latest recevied weather packets stored in our database for station/object OE6ACM-14. If no packets are shown the sender has not sent any weather packets the latest 10 day(s).
| Time | Temp. | Humidity | Pressure | Rain* | Wind** | Luminosity | Snow |
|---|---|---|---|---|---|---|---|
| 1777643981 | 23.33° C | 21% | 934.5 hPa | - | - | - | - |
| 1777643681 | 23.89° C | 21% | 934.5 hPa | - | - | - | - |
| 1777643381 | 23.89° C | 23% | 934.6 hPa | - | - | - | - |
| 1777643081 | 24.44° C | 21% | 934.5 hPa | - | - | - | - |
| 1777642781 | 23.89° C | 22% | 934.7 hPa | - | - | - | - |
| 1777642481 | 22.22° C | 24% | 934.7 hPa | - | - | - | - |
| 1777642181 | 21.11° C | 23% | 934.7 hPa | - | - | - | - |
| 1777641881 | 22.78° C | 23% | 934.7 hPa | - | - | - | - |
| 1777641581 | 21.67° C | 25% | 934.9 hPa | - | - | - | - |
| 1777641281 | 23.89° C | 23% | 934.8 hPa | - | - | - | - |
| 1777640981 | 25° C | 24% | 934.9 hPa | - | - | - | - |
| 1777640681 | 24.44° C | 25% | 934.9 hPa | - | - | - | - |
| 1777640381 | 24.44° C | 23% | 934.9 hPa | - | - | - | - |
| 1777640081 | 23.33° C | 26% | 935 hPa | - | - | - | - |
| 1777639781 | 22.22° C | 25% | 935.1 hPa | - | - | - | - |
| 1777639481 | 22.78° C | 25% | 935.1 hPa | - | - | - | - |
| 1777639181 | 22.22° C | 26% | 935.3 hPa | - | - | - | - |
| 1777638881 | 23.33° C | 24% | 935.2 hPa | - | - | - | - |
| 1777638581 | 22.78° C | 23% | 935.2 hPa | - | - | - | - |
| 1777638281 | 22.78° C | 24% | 935.3 hPa | - | - | - | - |
| 1777637981 | 22.22° C | 27% | 935.4 hPa | - | - | - | - |
| 1777637681 | 21.67° C | 26% | 935.4 hPa | - | - | - | - |
| 1777637381 | 22.22° C | 25% | 935.5 hPa | - | - | - | - |
| 1777637081 | 21.11° C | 25% | 935.5 hPa | - | - | - | - |
| 1777636781 | 22.22° C | 24% | 935.5 hPa | - | - | - | - |
* Rain since midnight (hover to see other rain measurements)
** Current wind speed in m/s (hover to see current wind gust speed)